PCT weather

Princeton Airport
Princeton/Rocky Hill, New Jersey, United States

Public forecast

Using degrees Fahrenheit for public forecast. Weather courtesy of forecast.io.

METAR (pilot weather report)

Closest report is Trenton Mercer Airport, 10.2 nm (18.9 km) SW. Retrieved 2019/09/23 02:53 UTC (52 minutes ago):

KTTN 230253Z AUTO 19005KT 10SM CLR 22/18 A3003 RMK AO2 SLP161 T02170178 58002

TAF (pilot weather forecast)

Forecast is more than 12 hours old.

Closest forecast is Trenton Mercer Airport, 10.2 nm (18.9 km) SW. Retrieved 2019/09/22 00:36 UTC (1 day ago):

TAF KTTN 222334Z 2300/2324 VRB04KT P6SM SKC FM230800 VRB03KT 6SM BR SCT005 FM231300 24008KT P6SM SCT250 FM232100 24010KT P6SM BKN070